createdAt,value
2019-01-29T14:18:55.763Z,18.43
2019-01-29T14:21:50.317Z,18.57
2019-01-29T14:24:45.185Z,16.47
2019-01-29T14:27:40.408Z,17.87
2019-01-29T14:30:35.194Z,18.60
2019-01-29T14:33:29.707Z,25.90
2019-01-29T14:36:24.289Z,22.97
2019-01-29T14:39:50.707Z,32.90
2019-01-29T14:42:47.665Z,27.10
2019-01-29T14:45:42.074Z,26.40
2019-01-29T14:48:36.593Z,29.67
2019-01-29T14:51:31.488Z,23.83
2019-01-29T14:54:26.574Z,23.13
2019-01-29T14:57:21.352Z,25.40
2019-01-29T15:00:23.358Z,33.30
2019-01-29T15:03:18.151Z,41.10
2019-01-29T15:06:12.512Z,38.60
2019-01-29T15:09:11.489Z,32.30
2019-01-29T15:12:05.955Z,38.40
2019-01-29T15:15:00.821Z,32.33
2019-01-29T15:18:01.647Z,34.03
2019-01-29T15:20:56.134Z,38.47
2019-01-29T15:23:50.673Z,44.67
2019-01-29T15:26:45.812Z,28.40
2019-01-29T15:29:42.721Z,29.07
2019-01-29T15:32:37.547Z,31.37
2019-01-29T15:35:32.284Z,26.37
2019-01-29T15:38:27.331Z,21.43
2019-01-29T15:41:22.090Z,21.70
2019-01-29T15:44:16.611Z,20.20
2019-01-29T15:47:11.243Z,22.33
2019-01-29T15:50:07.213Z,21.67
2019-01-29T15:53:01.964Z,20.70
2019-01-29T15:55:56.598Z,22.40
2019-01-29T15:58:51.113Z,20.77
2019-01-29T16:01:45.679Z,14.53
2019-01-29T16:04:40.026Z,15.10
2019-01-29T16:07:34.555Z,19.50
2019-01-29T16:10:39.515Z,18.10
2019-01-29T16:13:28.112Z,20.13
2019-01-29T16:16:23.055Z,11.50
2019-01-29T16:19:17.822Z,13.97
2019-01-29T16:22:12.758Z,14.33
2019-01-29T16:25:09.442Z,14.17
2019-01-29T16:28:03.918Z,12.83
2019-01-29T16:30:58.294Z,14.10
2019-01-29T16:33:52.907Z,15.37
2019-01-29T16:36:48.042Z,14.10
2019-01-29T16:39:42.817Z,13.53
2019-01-29T16:42:37.357Z,16.07
2019-01-29T16:45:33.075Z,12.97
2019-01-29T16:48:27.327Z,11.97
2019-01-29T16:51:22.282Z,12.03
2019-01-29T16:54:16.805Z,7.63
2019-01-29T16:57:11.087Z,12.53
2019-01-29T17:00:10.207Z,12.30
2019-01-29T17:03:04.988Z,10.57
2019-01-29T17:05:59.723Z,9.07
2019-01-29T17:08:54.305Z,8.93
2019-01-29T17:11:50.203Z,5.43
2019-01-29T17:14:44.703Z,10.90
2019-01-29T17:17:39.426Z,8.83
2019-01-29T17:20:39.527Z,8.23
2019-01-29T17:23:33.763Z,6.20
2019-01-29T17:26:28.193Z,6.60
2019-01-29T17:29:23.268Z,6.70
2019-01-29T17:32:19.153Z,7.10
2019-01-29T17:35:13.729Z,5.97
2019-01-29T17:38:08.437Z,6.47
2019-01-29T17:41:03.138Z,7.20
2019-01-29T17:43:57.782Z,6.13
2019-01-29T17:46:53.052Z,7.93
2019-01-29T17:49:47.909Z,5.77
2019-01-29T17:52:42.547Z,5.87
2019-01-29T17:55:41.879Z,6.27
2019-01-29T17:58:36.263Z,15.13
2019-01-29T18:01:30.866Z,7.33
2019-01-29T18:04:25.232Z,7.07
2019-01-29T18:07:19.809Z,9.53
2019-01-29T18:10:15.685Z,8.77
2019-01-29T18:13:10.053Z,8.37
2019-01-29T18:16:04.677Z,7.90
2019-01-29T18:18:59.347Z,12.07
2019-01-29T18:21:57.116Z,9.20
2019-01-29T18:24:50.584Z,8.93
2019-01-29T18:27:45.225Z,9.87
2019-01-29T18:30:39.554Z,13.07
2019-01-29T18:33:34.056Z,15.37
2019-01-29T18:36:28.361Z,20.03
2019-01-29T18:39:24.292Z,12.17
2019-01-29T18:42:19.390Z,13.53
2019-01-29T18:45:14.303Z,16.93
2019-01-29T18:48:10.291Z,16.40
2019-01-29T18:51:04.922Z,15.27
2019-01-29T18:53:59.772Z,13.30
2019-01-29T18:56:55.369Z,17.30
2019-01-29T18:59:49.867Z,14.23
2019-01-29T19:02:44.358Z,14.83
2019-01-29T19:05:39.140Z,14.03
2019-01-29T19:08:33.781Z,15.73
2019-01-29T19:11:28.555Z,13.73
2019-01-29T19:14:23.932Z,23.93
2019-01-29T19:17:18.649Z,16.60
2019-01-29T19:20:13.955Z,15.63
2019-01-29T19:23:08.604Z,14.43
2019-01-29T19:26:03.180Z,14.03
2019-01-29T19:28:58.003Z,13.53
2019-01-29T19:31:52.608Z,14.23
2019-01-29T19:34:47.394Z,15.23
2019-01-29T19:37:41.868Z,15.83
2019-01-29T19:40:36.345Z,15.17
2019-01-29T19:43:31.169Z,14.73
2019-01-29T19:46:25.458Z,13.77
2019-01-29T19:49:20.290Z,16.33
2019-01-29T19:52:15.033Z,15.17
2019-01-29T19:55:09.723Z,15.10
2019-01-29T19:58:09.115Z,15.70
2019-01-29T20:01:01.888Z,12.93
2019-01-29T20:03:56.648Z,17.87
2019-01-29T20:06:51.566Z,14.03
2019-01-29T20:09:47.519Z,14.83
2019-01-29T20:12:42.355Z,16.37
2019-01-29T20:15:36.779Z,15.87
2019-01-29T20:18:31.537Z,16.07
2019-01-29T20:21:26.059Z,17.83
2019-01-29T20:24:20.923Z,16.27
2019-01-29T20:27:26.223Z,15.30
2019-01-29T20:30:24.620Z,19.30
2019-01-29T20:33:19.402Z,19.70
2019-01-29T20:36:14.061Z,16.60
2019-01-29T20:39:22.824Z,17.50
2019-01-29T20:42:18.454Z,19.87
2019-01-29T20:45:14.497Z,22.17
2019-01-29T20:48:09.390Z,17.50
2019-01-29T20:51:03.897Z,18.47
2019-01-29T20:53:58.119Z,18.87
2019-01-29T20:56:53.032Z,18.37
2019-01-29T20:59:48.730Z,18.07
2019-01-29T21:02:43.980Z,17.17
2019-01-29T21:05:38.843Z,18.70
2019-01-29T21:08:33.405Z,19.60
2019-01-29T21:11:28.172Z,17.80
2019-01-29T21:14:24.819Z,15.80
2019-01-29T21:17:20.610Z,19.57
2019-01-29T21:20:18.074Z,17.60
2019-01-29T21:23:12.986Z,15.97
2019-01-29T21:26:07.572Z,17.67
2019-01-29T21:29:15.480Z,17.90
2019-01-29T21:32:10.381Z,18.87
2019-01-29T21:35:05.807Z,19.63
2019-01-29T21:38:00.225Z,17.53
2019-01-29T21:40:54.758Z,16.33
2019-01-29T21:43:49.457Z,16.57
2019-01-29T21:46:44.278Z,18.90
2019-01-29T21:49:38.805Z,17.83
2019-01-29T21:52:33.220Z,17.17
2019-01-29T21:55:28.046Z,18.10
2019-01-29T21:58:22.894Z,18.07
2019-01-29T22:01:17.994Z,17.83
2019-01-29T22:04:13.810Z,16.53
2019-01-29T22:07:09.119Z,22.30
2019-01-29T22:10:07.947Z,19.10
2019-01-29T22:13:02.752Z,21.17
2019-01-29T22:15:57.562Z,15.00
2019-01-29T22:18:52.047Z,17.40
